Sanford, California
Current Conditions -  °F | °C
As of 10:47 AM on Friday 24 Oct 2014 (Local Time) from KCQT Reporting Station
Clear Clear  
Wind Chill: 81°   Ceiling: Unl
Heat Index: 81°   Visibility: 7mi
Dew Point: 47°   Wind: 0mph
Humidity: 30%   Direction: NA
Pressure: 29.98"   Gusts: NA
Location:  34.0664°N, 118.31°W
Report Text: KCQT 241747Z AUTO 00000KT 7SM CLR 27/08 A2998 RMK AO2 SLP149 T02720083 10272 20150 50002
Loading
Personal Weather Stations






























Interactive Weather Map
Tropical Storm Tracking
New forecast layout! Learn more

10-Day Weather Forecast

Advertisements
Track Severe Weather on mobile